Funkley, Minnesota
Current Conditions -  °F | °C
As of 3:31 PM on Monday 24 Nov 2014 (Local Time) from KVWU Reporting Station
Light Snow Light Snow  
Wind Chill:   Ceiling: 1600
Heat Index: 14°   Visibility: 4mi
Dew Point: 10°   Wind: 8mph
Humidity: 86%   Direction: 310°NW
Pressure: 29.73"   Gusts: NA
Location:  47.7306°N, 94.3762°W
Report Text: KVWU 242131Z AUTO 31007KT 4SM -SN OVC016 M10/M12 A2973 RMK AO2
Loading
Personal Weather Stations






























Interactive Weather Map New forecast layout! Learn more

10-Day Weather Forecast

Advertisements
Track Severe Weather on mobile